<?xml version="1.0" encoding="UTF-8" standalone="no" ?>
<gpx xmlns="http://www.topografix.com/GPX/1/1" xmlns:xsi="http://www.w3.org/2001/XMLSchema-instance" xsi:schemaLocation="http://www.topografix.com/GPX/1/1 http://www.topografix.com/GPX/1/1/gpx.xsd" version="1.1" creator="VisuGPX - https://www.visugpx.com">
  <metadata>
    <name>Rocroi fortifications 2026</name>
  </metadata>
  <trk>
    <name><![CDATA[Trace 1778577643573]]></name>
    <extensions>
      <line xmlns="http://www.topografix.com/GPX/gpx_style/0/2">
        <color>0000FF</color>
        <width>4</width>
      </line>
    </extensions>
    <trkseg>
      <trkpt lat="49.925" lon="4.52069">
        <ele>483.4</ele>
        <time>2026-05-12T09:20:43.573Z</time>
      </trkpt>
      <trkpt lat="49.92492" lon="4.5208">
        <ele>467.2</ele>
        <time>2026-05-12T09:20:54.000Z</time>
      </trkpt>
      <trkpt lat="49.92486" lon="4.52087">
        <ele>455.8</ele>
        <time>2026-05-12T09:21:04.000Z</time>
      </trkpt>
      <trkpt lat="49.92478" lon="4.52086">
        <ele>451.4</ele>
        <time>2026-05-12T09:21:14.000Z</time>
      </trkpt>
      <trkpt lat="49.92464" lon="4.52096">
        <ele>442.8</ele>
        <time>2026-05-12T09:21:24.000Z</time>
      </trkpt>
      <trkpt lat="49.92457" lon="4.52106">
        <ele>438.8</ele>
        <time>2026-05-12T09:21:34.000Z</time>
      </trkpt>
      <trkpt lat="49.92448" lon="4.52113">
        <ele>436</ele>
        <time>2026-05-12T09:21:44.000Z</time>
      </trkpt>
      <trkpt lat="49.92449" lon="4.52107">
        <ele>435.2</ele>
        <time>2026-05-12T09:21:54.000Z</time>
      </trkpt>
      <trkpt lat="49.92451" lon="4.52106">
        <ele>434.8</ele>
        <time>2026-05-12T09:22:04.000Z</time>
      </trkpt>
      <trkpt lat="49.92448" lon="4.52112">
        <ele>437.4</ele>
        <time>2026-05-12T09:22:14.000Z</time>
      </trkpt>
      <trkpt lat="49.92437" lon="4.52127">
        <ele>438</ele>
        <time>2026-05-12T09:22:24.000Z</time>
      </trkpt>
      <trkpt lat="49.92434" lon="4.52131">
        <ele>437.8</ele>
        <time>2026-05-12T09:22:34.000Z</time>
      </trkpt>
      <trkpt lat="49.92427" lon="4.52133">
        <ele>436.3</ele>
        <time>2026-05-12T09:22:44.000Z</time>
      </trkpt>
      <trkpt lat="49.92425" lon="4.52137">
        <ele>437.5</ele>
        <time>2026-05-12T09:22:54.000Z</time>
      </trkpt>
      <trkpt lat="49.92416" lon="4.52142">
        <ele>438.8</ele>
        <time>2026-05-12T09:23:04.000Z</time>
      </trkpt>
      <trkpt lat="49.92406" lon="4.52151">
        <ele>439.4</ele>
        <time>2026-05-12T09:23:14.000Z</time>
      </trkpt>
      <trkpt lat="49.92392" lon="4.52157">
        <ele>440.8</ele>
        <time>2026-05-12T09:23:24.000Z</time>
      </trkpt>
      <trkpt lat="49.92393" lon="4.52163">
        <ele>448.1</ele>
        <time>2026-05-12T09:23:34.000Z</time>
      </trkpt>
      <trkpt lat="49.92399" lon="4.52166">
        <ele>452.4</ele>
        <time>2026-05-12T09:23:44.000Z</time>
      </trkpt>
      <trkpt lat="49.924" lon="4.52167">
        <ele>457.1</ele>
        <time>2026-05-12T09:23:56.000Z</time>
      </trkpt>
      <trkpt lat="49.92378" lon="4.52167">
        <ele>459.7</ele>
        <time>2026-05-12T09:24:06.000Z</time>
      </trkpt>
      <trkpt lat="49.9236" lon="4.5218">
        <ele>446.3</ele>
        <time>2026-05-12T09:24:16.000Z</time>
      </trkpt>
      <trkpt lat="49.92356" lon="4.52181">
        <ele>441.8</ele>
        <time>2026-05-12T09:24:26.000Z</time>
      </trkpt>
      <trkpt lat="49.92353" lon="4.52186">
        <ele>437.5</ele>
        <time>2026-05-12T09:24:36.000Z</time>
      </trkpt>
      <trkpt lat="49.92343" lon="4.522">
        <ele>434.1</ele>
        <time>2026-05-12T09:24:46.000Z</time>
      </trkpt>
      <trkpt lat="49.92338" lon="4.52197">
        <ele>431.5</ele>
        <time>2026-05-12T09:24:56.000Z</time>
      </trkpt>
      <trkpt lat="49.92339" lon="4.52192">
        <ele>431.6</ele>
        <time>2026-05-12T09:25:06.000Z</time>
      </trkpt>
      <trkpt lat="49.92339" lon="4.52192">
        <ele>431.6</ele>
        <time>2026-05-12T09:25:16.000Z</time>
      </trkpt>
      <trkpt lat="49.92339" lon="4.52192">
        <ele>431.6</ele>
        <time>2026-05-12T09:25:26.000Z</time>
      </trkpt>
      <trkpt lat="49.92339" lon="4.52192">
        <ele>426.2</ele>
        <time>2026-05-12T09:25:36.000Z</time>
      </trkpt>
      <trkpt lat="49.92344" lon="4.52189">
        <ele>426.3</ele>
        <time>2026-05-12T09:25:46.000Z</time>
      </trkpt>
      <trkpt lat="49.92344" lon="4.52189">
        <ele>426.3</ele>
        <time>2026-05-12T09:25:56.000Z</time>
      </trkpt>
      <trkpt lat="49.92336" lon="4.52196">
        <ele>425.8</ele>
        <time>2026-05-12T09:26:06.000Z</time>
      </trkpt>
      <trkpt lat="49.92329" lon="4.52201">
        <ele>426.5</ele>
        <time>2026-05-12T09:26:16.000Z</time>
      </trkpt>
      <trkpt lat="49.92327" lon="4.5221">
        <ele>426.6</ele>
        <time>2026-05-12T09:26:26.000Z</time>
      </trkpt>
      <trkpt lat="49.92321" lon="4.52213">
        <ele>427.3</ele>
        <time>2026-05-12T09:26:36.000Z</time>
      </trkpt>
      <trkpt lat="49.92316" lon="4.52215">
        <ele>427.8</ele>
        <time>2026-05-12T09:26:46.000Z</time>
      </trkpt>
      <trkpt lat="49.92308" lon="4.52204">
        <ele>428.4</ele>
        <time>2026-05-12T09:26:56.000Z</time>
      </trkpt>
      <trkpt lat="49.92309" lon="4.52202">
        <ele>429</ele>
        <time>2026-05-12T09:27:06.000Z</time>
      </trkpt>
      <trkpt lat="49.92316" lon="4.52206">
        <ele>428</ele>
        <time>2026-05-12T09:27:16.000Z</time>
      </trkpt>
      <trkpt lat="49.92318" lon="4.522">
        <ele>429.3</ele>
        <time>2026-05-12T09:27:26.000Z</time>
      </trkpt>
      <trkpt lat="49.92322" lon="4.52185">
        <ele>431.8</ele>
        <time>2026-05-12T09:27:36.000Z</time>
      </trkpt>
      <trkpt lat="49.92321" lon="4.52177">
        <ele>433.4</ele>
        <time>2026-05-12T09:27:46.000Z</time>
      </trkpt>
      <trkpt lat="49.92319" lon="4.52181">
        <ele>431.9</ele>
        <time>2026-05-12T09:27:56.000Z</time>
      </trkpt>
      <trkpt lat="49.92318" lon="4.522">
        <ele>431.9</ele>
        <time>2026-05-12T09:28:06.000Z</time>
      </trkpt>
      <trkpt lat="49.92317" lon="4.52213">
        <ele>432.9</ele>
        <time>2026-05-12T09:28:16.000Z</time>
      </trkpt>
      <trkpt lat="49.92319" lon="4.52224">
        <ele>431.9</ele>
        <time>2026-05-12T09:28:26.000Z</time>
      </trkpt>
      <trkpt lat="49.92331" lon="4.5223">
        <ele>431.1</ele>
        <time>2026-05-12T09:28:36.000Z</time>
      </trkpt>
      <trkpt lat="49.92339" lon="4.52238">
        <ele>430.3</ele>
        <time>2026-05-12T09:28:46.000Z</time>
      </trkpt>
      <trkpt lat="49.92343" lon="4.5224">
        <ele>432.6</ele>
        <time>2026-05-12T09:28:56.000Z</time>
      </trkpt>
      <trkpt lat="49.92346" lon="4.52242">
        <ele>435.5</ele>
        <time>2026-05-12T09:29:06.000Z</time>
      </trkpt>
      <trkpt lat="49.92365" lon="4.52321">
        <ele>455.9</ele>
        <time>2026-05-12T09:29:20.000Z</time>
      </trkpt>
      <trkpt lat="49.92352" lon="4.52278">
        <ele>430.1</ele>
        <time>2026-05-12T09:29:30.000Z</time>
      </trkpt>
      <trkpt lat="49.9235" lon="4.52278">
        <ele>430.5</ele>
        <time>2026-05-12T09:29:40.000Z</time>
      </trkpt>
      <trkpt lat="49.9235" lon="4.52278">
        <ele>430.5</ele>
        <time>2026-05-12T09:29:50.000Z</time>
      </trkpt>
      <trkpt lat="49.9235" lon="4.52278">
        <ele>430.5</ele>
        <time>2026-05-12T09:30:00.000Z</time>
      </trkpt>
      <trkpt lat="49.92349" lon="4.52275">
        <ele>433.6</ele>
        <time>2026-05-12T09:30:10.000Z</time>
      </trkpt>
      <trkpt lat="49.92351" lon="4.52279">
        <ele>434.1</ele>
        <time>2026-05-12T09:30:20.000Z</time>
      </trkpt>
      <trkpt lat="49.9234" lon="4.52308">
        <ele>483.3</ele>
        <time>2026-05-12T09:30:39.000Z</time>
      </trkpt>
      <trkpt lat="49.92329" lon="4.52317">
        <ele>473.1</ele>
        <time>2026-05-12T09:30:49.000Z</time>
      </trkpt>
      <trkpt lat="49.92331" lon="4.52309">
        <ele>466.8</ele>
        <time>2026-05-12T09:30:59.000Z</time>
      </trkpt>
      <trkpt lat="49.92338" lon="4.52303">
        <ele>463.9</ele>
        <time>2026-05-12T09:31:09.000Z</time>
      </trkpt>
      <trkpt lat="49.92334" lon="4.52303">
        <ele>462.4</ele>
        <time>2026-05-12T09:31:19.000Z</time>
      </trkpt>
      <trkpt lat="49.92336" lon="4.52295">
        <ele>462.9</ele>
        <time>2026-05-12T09:31:33.000Z</time>
      </trkpt>
      <trkpt lat="49.92355" lon="4.52283">
        <ele>463.3</ele>
        <time>2026-05-12T09:31:43.000Z</time>
      </trkpt>
      <trkpt lat="49.92366" lon="4.52285">
        <ele>447.5</ele>
        <time>2026-05-12T09:31:53.000Z</time>
      </trkpt>
      <trkpt lat="49.92367" lon="4.52287">
        <ele>443.3</ele>
        <time>2026-05-12T09:32:03.000Z</time>
      </trkpt>
      <trkpt lat="49.92365" lon="4.52307">
        <ele>439.2</ele>
        <time>2026-05-12T09:32:13.000Z</time>
      </trkpt>
      <trkpt lat="49.92366" lon="4.52323">
        <ele>436.9</ele>
        <time>2026-05-12T09:32:23.000Z</time>
      </trkpt>
      <trkpt lat="49.92367" lon="4.52337">
        <ele>435.7</ele>
        <time>2026-05-12T09:32:33.000Z</time>
      </trkpt>
      <trkpt lat="49.92368" lon="4.52355">
        <ele>429</ele>
        <time>2026-05-12T09:32:43.000Z</time>
      </trkpt>
      <trkpt lat="49.9237" lon="4.52369">
        <ele>424.8</ele>
        <time>2026-05-12T09:32:53.000Z</time>
      </trkpt>
      <trkpt lat="49.92373" lon="4.5239">
        <ele>422.8</ele>
        <time>2026-05-12T09:33:03.000Z</time>
      </trkpt>
      <trkpt lat="49.92376" lon="4.52408">
        <ele>423.8</ele>
        <time>2026-05-12T09:33:13.000Z</time>
      </trkpt>
      <trkpt lat="49.9238" lon="4.52425">
        <ele>426.3</ele>
        <time>2026-05-12T09:33:23.000Z</time>
      </trkpt>
      <trkpt lat="49.92383" lon="4.52443">
        <ele>428.8</ele>
        <time>2026-05-12T09:33:33.000Z</time>
      </trkpt>
      <trkpt lat="49.92388" lon="4.52452">
        <ele>430.6</ele>
        <time>2026-05-12T09:33:43.000Z</time>
      </trkpt>
      <trkpt lat="49.92393" lon="4.5245">
        <ele>432.7</ele>
        <time>2026-05-12T09:33:53.000Z</time>
      </trkpt>
      <trkpt lat="49.92395" lon="4.52457">
        <ele>432.3</ele>
        <time>2026-05-12T09:34:03.000Z</time>
      </trkpt>
      <trkpt lat="49.924" lon="4.52466">
        <ele>433.2</ele>
        <time>2026-05-12T09:34:13.000Z</time>
      </trkpt>
      <trkpt lat="49.92401" lon="4.52473">
        <ele>433</ele>
        <time>2026-05-12T09:34:23.000Z</time>
      </trkpt>
      <trkpt lat="49.92406" lon="4.52477">
        <ele>433.4</ele>
        <time>2026-05-12T09:34:33.000Z</time>
      </trkpt>
      <trkpt lat="49.92413" lon="4.52476">
        <ele>433.4</ele>
        <time>2026-05-12T09:34:43.000Z</time>
      </trkpt>
      <trkpt lat="49.9242" lon="4.52473">
        <ele>433.9</ele>
        <time>2026-05-12T09:34:53.000Z</time>
      </trkpt>
      <trkpt lat="49.92422" lon="4.52469">
        <ele>434.1</ele>
        <time>2026-05-12T09:35:03.000Z</time>
      </trkpt>
      <trkpt lat="49.92432" lon="4.52462">
        <ele>434.3</ele>
        <time>2026-05-12T09:35:13.000Z</time>
      </trkpt>
      <trkpt lat="49.92442" lon="4.52456">
        <ele>435.3</ele>
        <time>2026-05-12T09:35:23.000Z</time>
      </trkpt>
      <trkpt lat="49.9245" lon="4.52451">
        <ele>435.4</ele>
        <time>2026-05-12T09:35:33.000Z</time>
      </trkpt>
      <trkpt lat="49.92455" lon="4.52446">
        <ele>436.7</ele>
        <time>2026-05-12T09:35:43.000Z</time>
      </trkpt>
      <trkpt lat="49.92467" lon="4.5244">
        <ele>438.5</ele>
        <time>2026-05-12T09:35:53.000Z</time>
      </trkpt>
      <trkpt lat="49.92478" lon="4.5243">
        <ele>440.9</ele>
        <time>2026-05-12T09:36:03.000Z</time>
      </trkpt>
      <trkpt lat="49.92487" lon="4.52425">
        <ele>443.2</ele>
        <time>2026-05-12T09:36:13.000Z</time>
      </trkpt>
      <trkpt lat="49.92499" lon="4.52414">
        <ele>444</ele>
        <time>2026-05-12T09:36:23.000Z</time>
      </trkpt>
      <trkpt lat="49.92512" lon="4.52405">
        <ele>445.4</ele>
        <time>2026-05-12T09:36:33.000Z</time>
      </trkpt>
      <trkpt lat="49.92525" lon="4.52402">
        <ele>446</ele>
        <time>2026-05-12T09:36:43.000Z</time>
      </trkpt>
      <trkpt lat="49.92535" lon="4.52413">
        <ele>444.8</ele>
        <time>2026-05-12T09:36:53.000Z</time>
      </trkpt>
      <trkpt lat="49.9254" lon="4.52423">
        <ele>443.9</ele>
        <time>2026-05-12T09:37:03.000Z</time>
      </trkpt>
      <trkpt lat="49.92547" lon="4.52419">
        <ele>445.5</ele>
        <time>2026-05-12T09:37:13.000Z</time>
      </trkpt>
      <trkpt lat="49.92554" lon="4.52406">
        <ele>447</ele>
        <time>2026-05-12T09:37:23.000Z</time>
      </trkpt>
      <trkpt lat="49.92564" lon="4.52394">
        <ele>450.6</ele>
        <time>2026-05-12T09:37:33.000Z</time>
      </trkpt>
      <trkpt lat="49.92573" lon="4.52381">
        <ele>450.7</ele>
        <time>2026-05-12T09:37:43.000Z</time>
      </trkpt>
      <trkpt lat="49.92582" lon="4.52376">
        <ele>447.1</ele>
        <time>2026-05-12T09:37:53.000Z</time>
      </trkpt>
      <trkpt lat="49.92593" lon="4.52372">
        <ele>443.9</ele>
        <time>2026-05-12T09:38:03.000Z</time>
      </trkpt>
      <trkpt lat="49.92601" lon="4.52367">
        <ele>441.5</ele>
        <time>2026-05-12T09:38:13.000Z</time>
      </trkpt>
      <trkpt lat="49.92609" lon="4.5235">
        <ele>437.1</ele>
        <time>2026-05-12T09:38:23.000Z</time>
      </trkpt>
      <trkpt lat="49.92613" lon="4.52343">
        <ele>434.2</ele>
        <time>2026-05-12T09:38:33.000Z</time>
      </trkpt>
      <trkpt lat="49.92615" lon="4.52336">
        <ele>432</ele>
        <time>2026-05-12T09:38:43.000Z</time>
      </trkpt>
      <trkpt lat="49.92618" lon="4.52319">
        <ele>429.9</ele>
        <time>2026-05-12T09:38:53.000Z</time>
      </trkpt>
      <trkpt lat="49.92617" lon="4.52304">
        <ele>428.3</ele>
        <time>2026-05-12T09:39:03.000Z</time>
      </trkpt>
      <trkpt lat="49.92622" lon="4.52292">
        <ele>428.1</ele>
        <time>2026-05-12T09:39:13.000Z</time>
      </trkpt>
      <trkpt lat="49.92623" lon="4.52278">
        <ele>427.9</ele>
        <time>2026-05-12T09:39:23.000Z</time>
      </trkpt>
      <trkpt lat="49.92623" lon="4.52278">
        <ele>427.6</ele>
        <time>2026-05-12T09:39:33.000Z</time>
      </trkpt>
      <trkpt lat="49.92623" lon="4.52277">
        <ele>427</ele>
        <time>2026-05-12T09:39:43.000Z</time>
      </trkpt>
      <trkpt lat="49.92623" lon="4.52277">
        <ele>427</ele>
        <time>2026-05-12T09:39:53.000Z</time>
      </trkpt>
      <trkpt lat="49.92623" lon="4.52277">
        <ele>427</ele>
        <time>2026-05-12T09:40:03.000Z</time>
      </trkpt>
      <trkpt lat="49.92623" lon="4.52277">
        <ele>430.1</ele>
        <time>2026-05-12T09:40:13.000Z</time>
      </trkpt>
      <trkpt lat="49.92626" lon="4.52274">
        <ele>430.8</ele>
        <time>2026-05-12T09:40:23.000Z</time>
      </trkpt>
      <trkpt lat="49.92631" lon="4.52262">
        <ele>430.3</ele>
        <time>2026-05-12T09:40:33.000Z</time>
      </trkpt>
      <trkpt lat="49.92633" lon="4.52245">
        <ele>427.8</ele>
        <time>2026-05-12T09:40:43.000Z</time>
      </trkpt>
      <trkpt lat="49.92628" lon="4.52227">
        <ele>427.5</ele>
        <time>2026-05-12T09:40:53.000Z</time>
      </trkpt>
      <trkpt lat="49.92629" lon="4.5222">
        <ele>427.4</ele>
        <time>2026-05-12T09:41:03.000Z</time>
      </trkpt>
      <trkpt lat="49.92633" lon="4.52214">
        <ele>427.5</ele>
        <time>2026-05-12T09:41:13.000Z</time>
      </trkpt>
      <trkpt lat="49.92641" lon="4.52207">
        <ele>430.1</ele>
        <time>2026-05-12T09:41:23.000Z</time>
      </trkpt>
      <trkpt lat="49.92644" lon="4.52213">
        <ele>433.2</ele>
        <time>2026-05-12T09:41:33.000Z</time>
      </trkpt>
      <trkpt lat="49.92649" lon="4.52222">
        <ele>435.5</ele>
        <time>2026-05-12T09:41:43.000Z</time>
      </trkpt>
      <trkpt lat="49.92652" lon="4.52204">
        <ele>437.2</ele>
        <time>2026-05-12T09:41:53.000Z</time>
      </trkpt>
      <trkpt lat="49.92651" lon="4.52202">
        <ele>437.8</ele>
        <time>2026-05-12T09:42:03.000Z</time>
      </trkpt>
      <trkpt lat="49.92657" lon="4.52197">
        <ele>439.2</ele>
        <time>2026-05-12T09:42:13.000Z</time>
      </trkpt>
      <trkpt lat="49.92661" lon="4.52188">
        <ele>439.6</ele>
        <time>2026-05-12T09:42:23.000Z</time>
      </trkpt>
      <trkpt lat="49.9267" lon="4.52185">
        <ele>439.8</ele>
        <time>2026-05-12T09:42:33.000Z</time>
      </trkpt>
      <trkpt lat="49.92677" lon="4.5219">
        <ele>439.1</ele>
        <time>2026-05-12T09:42:43.000Z</time>
      </trkpt>
      <trkpt lat="49.92673" lon="4.52204">
        <ele>439.2</ele>
        <time>2026-05-12T09:42:53.000Z</time>
      </trkpt>
      <trkpt lat="49.9267" lon="4.52211">
        <ele>444.1</ele>
        <time>2026-05-12T09:43:03.000Z</time>
      </trkpt>
      <trkpt lat="49.92676" lon="4.52217">
        <ele>445.2</ele>
        <time>2026-05-12T09:43:13.000Z</time>
      </trkpt>
      <trkpt lat="49.92687" lon="4.52222">
        <ele>446.4</ele>
        <time>2026-05-12T09:43:23.000Z</time>
      </trkpt>
      <trkpt lat="49.92692" lon="4.52226">
        <ele>447.6</ele>
        <time>2026-05-12T09:43:33.000Z</time>
      </trkpt>
      <trkpt lat="49.92699" lon="4.52223">
        <ele>448.4</ele>
        <time>2026-05-12T09:43:43.000Z</time>
      </trkpt>
      <trkpt lat="49.92702" lon="4.52228">
        <ele>450.5</ele>
        <time>2026-05-12T09:43:53.000Z</time>
      </trkpt>
      <trkpt lat="49.9271" lon="4.52246">
        <ele>486.7</ele>
        <time>2026-05-12T09:44:04.000Z</time>
      </trkpt>
      <trkpt lat="49.9271" lon="4.52271">
        <ele>480.5</ele>
        <time>2026-05-12T09:44:14.000Z</time>
      </trkpt>
      <trkpt lat="49.92702" lon="4.52268">
        <ele>465.9</ele>
        <time>2026-05-12T09:44:24.000Z</time>
      </trkpt>
      <trkpt lat="49.92697" lon="4.52271">
        <ele>462.4</ele>
        <time>2026-05-12T09:44:34.000Z</time>
      </trkpt>
      <trkpt lat="49.92703" lon="4.52276">
        <ele>456.2</ele>
        <time>2026-05-12T09:44:44.000Z</time>
      </trkpt>
      <trkpt lat="49.92714" lon="4.52284">
        <ele>453.2</ele>
        <time>2026-05-12T09:44:54.000Z</time>
      </trkpt>
      <trkpt lat="49.92727" lon="4.52285">
        <ele>452.6</ele>
        <time>2026-05-12T09:45:04.000Z</time>
      </trkpt>
      <trkpt lat="49.92726" lon="4.52287">
        <ele>452.8</ele>
        <time>2026-05-12T09:45:14.000Z</time>
      </trkpt>
      <trkpt lat="49.92725" lon="4.5229">
        <ele>449.6</ele>
        <time>2026-05-12T09:45:24.000Z</time>
      </trkpt>
      <trkpt lat="49.92722" lon="4.5229">
        <ele>445.3</ele>
        <time>2026-05-12T09:45:34.000Z</time>
      </trkpt>
      <trkpt lat="49.9272" lon="4.52285">
        <ele>444.2</ele>
        <time>2026-05-12T09:45:44.000Z</time>
      </trkpt>
      <trkpt lat="49.9271" lon="4.52277">
        <ele>442</ele>
        <time>2026-05-12T09:45:54.000Z</time>
      </trkpt>
      <trkpt lat="49.92702" lon="4.52266">
        <ele>440.4</ele>
        <time>2026-05-12T09:46:04.000Z</time>
      </trkpt>
      <trkpt lat="49.92704" lon="4.52255">
        <ele>438.4</ele>
        <time>2026-05-12T09:46:14.000Z</time>
      </trkpt>
      <trkpt lat="49.92704" lon="4.52242">
        <ele>440.2</ele>
        <time>2026-05-12T09:46:24.000Z</time>
      </trkpt>
      <trkpt lat="49.92691" lon="4.52228">
        <ele>436.2</ele>
        <time>2026-05-12T09:46:34.000Z</time>
      </trkpt>
      <trkpt lat="49.92682" lon="4.52221">
        <ele>431.8</ele>
        <time>2026-05-12T09:46:44.000Z</time>
      </trkpt>
      <trkpt lat="49.92676" lon="4.52206">
        <ele>430.8</ele>
        <time>2026-05-12T09:46:54.000Z</time>
      </trkpt>
      <trkpt lat="49.92672" lon="4.52192">
        <ele>428.6</ele>
        <time>2026-05-12T09:47:04.000Z</time>
      </trkpt>
      <trkpt lat="49.92673" lon="4.52173">
        <ele>427.6</ele>
        <time>2026-05-12T09:47:14.000Z</time>
      </trkpt>
      <trkpt lat="49.92679" lon="4.52159">
        <ele>428.9</ele>
        <time>2026-05-12T09:47:24.000Z</time>
      </trkpt>
      <trkpt lat="49.92688" lon="4.5215">
        <ele>430.7</ele>
        <time>2026-05-12T09:47:34.000Z</time>
      </trkpt>
      <trkpt lat="49.92698" lon="4.52143">
        <ele>431.9</ele>
        <time>2026-05-12T09:47:44.000Z</time>
      </trkpt>
      <trkpt lat="49.92709" lon="4.52148">
        <ele>431.7</ele>
        <time>2026-05-12T09:47:54.000Z</time>
      </trkpt>
      <trkpt lat="49.92719" lon="4.52145">
        <ele>428.9</ele>
        <time>2026-05-12T09:48:04.000Z</time>
      </trkpt>
      <trkpt lat="49.92728" lon="4.52145">
        <ele>430.5</ele>
        <time>2026-05-12T09:48:14.000Z</time>
      </trkpt>
      <trkpt lat="49.92732" lon="4.52141">
        <ele>429.7</ele>
        <time>2026-05-12T09:48:24.000Z</time>
      </trkpt>
      <trkpt lat="49.92731" lon="4.52123">
        <ele>429.4</ele>
        <time>2026-05-12T09:48:34.000Z</time>
      </trkpt>
      <trkpt lat="49.92732" lon="4.52106">
        <ele>430.5</ele>
        <time>2026-05-12T09:48:44.000Z</time>
      </trkpt>
      <trkpt lat="49.92735" lon="4.52099">
        <ele>430</ele>
        <time>2026-05-12T09:48:54.000Z</time>
      </trkpt>
      <trkpt lat="49.92737" lon="4.52095">
        <ele>428</ele>
        <time>2026-05-12T09:49:04.000Z</time>
      </trkpt>
      <trkpt lat="49.92739" lon="4.52076">
        <ele>428</ele>
        <time>2026-05-12T09:49:14.000Z</time>
      </trkpt>
      <trkpt lat="49.9276" lon="4.51974">
        <ele>481</ele>
        <time>2026-05-12T09:49:27.000Z</time>
      </trkpt>
      <trkpt lat="49.92749" lon="4.52044">
        <ele>433.7</ele>
        <time>2026-05-12T09:49:37.000Z</time>
      </trkpt>
      <trkpt lat="49.92751" lon="4.52043">
        <ele>430.9</ele>
        <time>2026-05-12T09:49:47.000Z</time>
      </trkpt>
      <trkpt lat="49.92754" lon="4.52035">
        <ele>431.6</ele>
        <time>2026-05-12T09:49:57.000Z</time>
      </trkpt>
      <trkpt lat="49.9276" lon="4.52024">
        <ele>431.4</ele>
        <time>2026-05-12T09:50:07.000Z</time>
      </trkpt>
      <trkpt lat="49.92763" lon="4.52011">
        <ele>432</ele>
        <time>2026-05-12T09:50:17.000Z</time>
      </trkpt>
      <trkpt lat="49.92765" lon="4.52002">
        <ele>433.3</ele>
        <time>2026-05-12T09:50:27.000Z</time>
      </trkpt>
      <trkpt lat="49.92767" lon="4.5199">
        <ele>434.1</ele>
        <time>2026-05-12T09:50:37.000Z</time>
      </trkpt>
      <trkpt lat="49.9277" lon="4.51977">
        <ele>434.5</ele>
        <time>2026-05-12T09:50:47.000Z</time>
      </trkpt>
      <trkpt lat="49.92775" lon="4.51968">
        <ele>432.6</ele>
        <time>2026-05-12T09:50:57.000Z</time>
      </trkpt>
      <trkpt lat="49.92777" lon="4.51952">
        <ele>431</ele>
        <time>2026-05-12T09:51:07.000Z</time>
      </trkpt>
      <trkpt lat="49.92777" lon="4.51951">
        <ele>431.2</ele>
        <time>2026-05-12T09:51:17.000Z</time>
      </trkpt>
      <trkpt lat="49.92782" lon="4.51942">
        <ele>430.9</ele>
        <time>2026-05-12T09:51:27.000Z</time>
      </trkpt>
      <trkpt lat="49.92786" lon="4.51924">
        <ele>429.9</ele>
        <time>2026-05-12T09:51:37.000Z</time>
      </trkpt>
      <trkpt lat="49.92788" lon="4.51909">
        <ele>430.2</ele>
        <time>2026-05-12T09:51:47.000Z</time>
      </trkpt>
      <trkpt lat="49.92792" lon="4.51898">
        <ele>428.8</ele>
        <time>2026-05-12T09:51:57.000Z</time>
      </trkpt>
      <trkpt lat="49.92792" lon="4.51897">
        <ele>428</ele>
        <time>2026-05-12T09:52:07.000Z</time>
      </trkpt>
      <trkpt lat="49.92793" lon="4.51891">
        <ele>426.8</ele>
        <time>2026-05-12T09:52:17.000Z</time>
      </trkpt>
      <trkpt lat="49.92791" lon="4.5188">
        <ele>426.4</ele>
        <time>2026-05-12T09:52:27.000Z</time>
      </trkpt>
      <trkpt lat="49.9279" lon="4.5188">
        <ele>426.8</ele>
        <time>2026-05-12T09:52:37.000Z</time>
      </trkpt>
      <trkpt lat="49.92786" lon="4.51874">
        <ele>426.1</ele>
        <time>2026-05-12T09:52:47.000Z</time>
      </trkpt>
      <trkpt lat="49.92783" lon="4.51873">
        <ele>427.1</ele>
        <time>2026-05-12T09:52:57.000Z</time>
      </trkpt>
      <trkpt lat="49.92783" lon="4.51873">
        <ele>427.3</ele>
        <time>2026-05-12T09:53:07.000Z</time>
      </trkpt>
      <trkpt lat="49.92776" lon="4.51873">
        <ele>428.5</ele>
        <time>2026-05-12T09:53:17.000Z</time>
      </trkpt>
      <trkpt lat="49.92769" lon="4.51868">
        <ele>427.4</ele>
        <time>2026-05-12T09:53:27.000Z</time>
      </trkpt>
      <trkpt lat="49.92758" lon="4.51865">
        <ele>426.4</ele>
        <time>2026-05-12T09:53:37.000Z</time>
      </trkpt>
      <trkpt lat="49.92748" lon="4.51859">
        <ele>425.8</ele>
        <time>2026-05-12T09:53:47.000Z</time>
      </trkpt>
      <trkpt lat="49.92738" lon="4.51857">
        <ele>425.2</ele>
        <time>2026-05-12T09:53:57.000Z</time>
      </trkpt>
      <trkpt lat="49.92726" lon="4.51852">
        <ele>425.6</ele>
        <time>2026-05-12T09:54:07.000Z</time>
      </trkpt>
      <trkpt lat="49.92718" lon="4.51848">
        <ele>425.8</ele>
        <time>2026-05-12T09:54:17.000Z</time>
      </trkpt>
      <trkpt lat="49.92706" lon="4.51845">
        <ele>426.2</ele>
        <time>2026-05-12T09:54:27.000Z</time>
      </trkpt>
      <trkpt lat="49.92695" lon="4.51835">
        <ele>425.2</ele>
        <time>2026-05-12T09:54:37.000Z</time>
      </trkpt>
      <trkpt lat="49.92686" lon="4.51821">
        <ele>423.8</ele>
        <time>2026-05-12T09:54:47.000Z</time>
      </trkpt>
      <trkpt lat="49.92682" lon="4.51806">
        <ele>425.1</ele>
        <time>2026-05-12T09:54:57.000Z</time>
      </trkpt>
      <trkpt lat="49.92682" lon="4.5179">
        <ele>425</ele>
        <time>2026-05-12T09:55:07.000Z</time>
      </trkpt>
      <trkpt lat="49.9268" lon="4.51773">
        <ele>424.3</ele>
        <time>2026-05-12T09:55:17.000Z</time>
      </trkpt>
      <trkpt lat="49.92678" lon="4.51756">
        <ele>423.6</ele>
        <time>2026-05-12T09:55:27.000Z</time>
      </trkpt>
      <trkpt lat="49.92674" lon="4.51745">
        <ele>423.9</ele>
        <time>2026-05-12T09:55:37.000Z</time>
      </trkpt>
      <trkpt lat="49.92669" lon="4.51734">
        <ele>423.3</ele>
        <time>2026-05-12T09:55:47.000Z</time>
      </trkpt>
      <trkpt lat="49.92667" lon="4.51729">
        <ele>424.9</ele>
        <time>2026-05-12T09:55:57.000Z</time>
      </trkpt>
      <trkpt lat="49.92667" lon="4.51726">
        <ele>426.1</ele>
        <time>2026-05-12T09:56:07.000Z</time>
      </trkpt>
      <trkpt lat="49.92667" lon="4.5173">
        <ele>426.5</ele>
        <time>2026-05-12T09:56:17.000Z</time>
      </trkpt>
      <trkpt lat="49.92668" lon="4.51729">
        <ele>427.1</ele>
        <time>2026-05-12T09:56:27.000Z</time>
      </trkpt>
      <trkpt lat="49.92665" lon="4.51715">
        <ele>427.2</ele>
        <time>2026-05-12T09:56:37.000Z</time>
      </trkpt>
      <trkpt lat="49.92661" lon="4.51706">
        <ele>425.7</ele>
        <time>2026-05-12T09:56:47.000Z</time>
      </trkpt>
      <trkpt lat="49.92661" lon="4.51705">
        <ele>425.7</ele>
        <time>2026-05-12T09:56:57.000Z</time>
      </trkpt>
      <trkpt lat="49.92661" lon="4.51705">
        <ele>425.7</ele>
        <time>2026-05-12T09:57:07.000Z</time>
      </trkpt>
      <trkpt lat="49.92661" lon="4.51705">
        <ele>425.7</ele>
        <time>2026-05-12T09:57:17.000Z</time>
      </trkpt>
      <trkpt lat="49.92661" lon="4.51705">
        <ele>425.7</ele>
        <time>2026-05-12T09:57:27.000Z</time>
      </trkpt>
      <trkpt lat="49.92659" lon="4.51699">
        <ele>426.8</ele>
        <time>2026-05-12T09:57:37.000Z</time>
      </trkpt>
      <trkpt lat="49.92662" lon="4.51711">
        <ele>421.8</ele>
        <time>2026-05-12T09:57:47.000Z</time>
      </trkpt>
      <trkpt lat="49.92656" lon="4.51702">
        <ele>420.3</ele>
        <time>2026-05-12T09:57:57.000Z</time>
      </trkpt>
      <trkpt lat="49.92643" lon="4.51704">
        <ele>421</ele>
        <time>2026-05-12T09:58:07.000Z</time>
      </trkpt>
      <trkpt lat="49.92638" lon="4.51709">
        <ele>420.1</ele>
        <time>2026-05-12T09:58:17.000Z</time>
      </trkpt>
      <trkpt lat="49.92637" lon="4.51712">
        <ele>420.6</ele>
        <time>2026-05-12T09:58:27.000Z</time>
      </trkpt>
      <trkpt lat="49.92624" lon="4.51709">
        <ele>420.9</ele>
        <time>2026-05-12T09:58:37.000Z</time>
      </trkpt>
      <trkpt lat="49.92616" lon="4.51709">
        <ele>423.5</ele>
        <time>2026-05-12T09:58:47.000Z</time>
      </trkpt>
      <trkpt lat="49.92607" lon="4.51714">
        <ele>424.7</ele>
        <time>2026-05-12T09:58:57.000Z</time>
      </trkpt>
      <trkpt lat="49.92599" lon="4.51719">
        <ele>424.7</ele>
        <time>2026-05-12T09:59:07.000Z</time>
      </trkpt>
      <trkpt lat="49.92589" lon="4.51723">
        <ele>424.8</ele>
        <time>2026-05-12T09:59:17.000Z</time>
      </trkpt>
      <trkpt lat="49.92576" lon="4.51727">
        <ele>425</ele>
        <time>2026-05-12T09:59:27.000Z</time>
      </trkpt>
      <trkpt lat="49.92563" lon="4.51726">
        <ele>427.7</ele>
        <time>2026-05-12T09:59:37.000Z</time>
      </trkpt>
      <trkpt lat="49.92551" lon="4.51721">
        <ele>426.3</ele>
        <time>2026-05-12T09:59:47.000Z</time>
      </trkpt>
      <trkpt lat="49.92549" lon="4.5172">
        <ele>423.7</ele>
        <time>2026-05-12T09:59:57.000Z</time>
      </trkpt>
      <trkpt lat="49.9255" lon="4.51721">
        <ele>424.1</ele>
        <time>2026-05-12T10:00:07.000Z</time>
      </trkpt>
      <trkpt lat="49.9255" lon="4.51721">
        <ele>424.1</ele>
        <time>2026-05-12T10:00:17.000Z</time>
      </trkpt>
      <trkpt lat="49.92545" lon="4.5171">
        <ele>424.8</ele>
        <time>2026-05-12T10:00:27.000Z</time>
      </trkpt>
      <trkpt lat="49.92536" lon="4.51699">
        <ele>423.1</ele>
        <time>2026-05-12T10:00:37.000Z</time>
      </trkpt>
      <trkpt lat="49.92527" lon="4.51686">
        <ele>422.2</ele>
        <time>2026-05-12T10:00:47.000Z</time>
      </trkpt>
      <trkpt lat="49.92519" lon="4.51675">
        <ele>423.9</ele>
        <time>2026-05-12T10:00:57.000Z</time>
      </trkpt>
      <trkpt lat="49.9251" lon="4.51661">
        <ele>426.2</ele>
        <time>2026-05-12T10:01:07.000Z</time>
      </trkpt>
      <trkpt lat="49.92507" lon="4.51659">
        <ele>427.3</ele>
        <time>2026-05-12T10:01:17.000Z</time>
      </trkpt>
      <trkpt lat="49.92497" lon="4.51648">
        <ele>427</ele>
        <time>2026-05-12T10:01:27.000Z</time>
      </trkpt>
      <trkpt lat="49.92486" lon="4.51647">
        <ele>426.9</ele>
        <time>2026-05-12T10:01:37.000Z</time>
      </trkpt>
      <trkpt lat="49.92476" lon="4.51658">
        <ele>427.1</ele>
        <time>2026-05-12T10:01:47.000Z</time>
      </trkpt>
      <trkpt lat="49.92468" lon="4.51672">
        <ele>428.4</ele>
        <time>2026-05-12T10:01:57.000Z</time>
      </trkpt>
      <trkpt lat="49.92462" lon="4.51684">
        <ele>428.9</ele>
        <time>2026-05-12T10:02:07.000Z</time>
      </trkpt>
      <trkpt lat="49.92456" lon="4.51694">
        <ele>429.9</ele>
        <time>2026-05-12T10:02:17.000Z</time>
      </trkpt>
      <trkpt lat="49.92452" lon="4.51703">
        <ele>429</ele>
        <time>2026-05-12T10:02:27.000Z</time>
      </trkpt>
      <trkpt lat="49.92449" lon="4.51706">
        <ele>430.5</ele>
        <time>2026-05-12T10:02:37.000Z</time>
      </trkpt>
      <trkpt lat="49.9245" lon="4.51706">
        <ele>431.3</ele>
        <time>2026-05-12T10:02:47.000Z</time>
      </trkpt>
      <trkpt lat="49.92447" lon="4.51712">
        <ele>427.2</ele>
        <time>2026-05-12T10:02:57.000Z</time>
      </trkpt>
      <trkpt lat="49.92437" lon="4.51729">
        <ele>426.5</ele>
        <time>2026-05-12T10:03:07.000Z</time>
      </trkpt>
      <trkpt lat="49.92432" lon="4.51744">
        <ele>427.7</ele>
        <time>2026-05-12T10:03:17.000Z</time>
      </trkpt>
      <trkpt lat="49.92426" lon="4.5176">
        <ele>427.2</ele>
        <time>2026-05-12T10:03:27.000Z</time>
      </trkpt>
      <trkpt lat="49.92418" lon="4.51777">
        <ele>428.6</ele>
        <time>2026-05-12T10:03:37.000Z</time>
      </trkpt>
      <trkpt lat="49.92411" lon="4.51794">
        <ele>429.5</ele>
        <time>2026-05-12T10:03:47.000Z</time>
      </trkpt>
      <trkpt lat="49.92406" lon="4.51805">
        <ele>429.4</ele>
        <time>2026-05-12T10:03:57.000Z</time>
      </trkpt>
      <trkpt lat="49.92406" lon="4.51801">
        <ele>429.8</ele>
        <time>2026-05-12T10:04:07.000Z</time>
      </trkpt>
      <trkpt lat="49.92412" lon="4.51798">
        <ele>428.9</ele>
        <time>2026-05-12T10:04:17.000Z</time>
      </trkpt>
      <trkpt lat="49.92402" lon="4.51805">
        <ele>425.6</ele>
        <time>2026-05-12T10:04:27.000Z</time>
      </trkpt>
      <trkpt lat="49.92398" lon="4.51815">
        <ele>425.2</ele>
        <time>2026-05-12T10:04:37.000Z</time>
      </trkpt>
      <trkpt lat="49.92388" lon="4.51827">
        <ele>425.9</ele>
        <time>2026-05-12T10:04:47.000Z</time>
      </trkpt>
      <trkpt lat="49.92377" lon="4.51829">
        <ele>427.3</ele>
        <time>2026-05-12T10:04:57.000Z</time>
      </trkpt>
      <trkpt lat="49.92365" lon="4.51829">
        <ele>427.8</ele>
        <time>2026-05-12T10:05:07.000Z</time>
      </trkpt>
      <trkpt lat="49.92355" lon="4.51834">
        <ele>428.1</ele>
        <time>2026-05-12T10:05:17.000Z</time>
      </trkpt>
      <trkpt lat="49.9236" lon="4.51845">
        <ele>429.1</ele>
        <time>2026-05-12T10:05:27.000Z</time>
      </trkpt>
      <trkpt lat="49.92369" lon="4.51852">
        <ele>428.7</ele>
        <time>2026-05-12T10:05:37.000Z</time>
      </trkpt>
      <trkpt lat="49.92379" lon="4.51866">
        <ele>428.4</ele>
        <time>2026-05-12T10:05:47.000Z</time>
      </trkpt>
      <trkpt lat="49.92384" lon="4.51876">
        <ele>427.1</ele>
        <time>2026-05-12T10:05:57.000Z</time>
      </trkpt>
      <trkpt lat="49.92391" lon="4.51888">
        <ele>426.4</ele>
        <time>2026-05-12T10:06:07.000Z</time>
      </trkpt>
      <trkpt lat="49.92398" lon="4.51899">
        <ele>424.5</ele>
        <time>2026-05-12T10:06:17.000Z</time>
      </trkpt>
      <trkpt lat="49.92402" lon="4.5191">
        <ele>424.2</ele>
        <time>2026-05-12T10:06:27.000Z</time>
      </trkpt>
      <trkpt lat="49.92413" lon="4.51922">
        <ele>425</ele>
        <time>2026-05-12T10:06:37.000Z</time>
      </trkpt>
      <trkpt lat="49.92426" lon="4.51929">
        <ele>426.6</ele>
        <time>2026-05-12T10:06:47.000Z</time>
      </trkpt>
      <trkpt lat="49.92432" lon="4.51931">
        <ele>425.1</ele>
        <time>2026-05-12T10:06:57.000Z</time>
      </trkpt>
      <trkpt lat="49.9243" lon="4.51942">
        <ele>427.5</ele>
        <time>2026-05-12T10:07:07.000Z</time>
      </trkpt>
      <trkpt lat="49.92423" lon="4.51941">
        <ele>428.3</ele>
        <time>2026-05-12T10:07:17.000Z</time>
      </trkpt>
      <trkpt lat="49.92414" lon="4.51928">
        <ele>430.8</ele>
        <time>2026-05-12T10:07:27.000Z</time>
      </trkpt>
      <trkpt lat="49.924" lon="4.51942">
        <ele>434.7</ele>
        <time>2026-05-12T10:07:37.000Z</time>
      </trkpt>
      <trkpt lat="49.92393" lon="4.51957">
        <ele>433.8</ele>
        <time>2026-05-12T10:07:47.000Z</time>
      </trkpt>
      <trkpt lat="49.92387" lon="4.5197">
        <ele>433.1</ele>
        <time>2026-05-12T10:07:57.000Z</time>
      </trkpt>
      <trkpt lat="49.92377" lon="4.51986">
        <ele>433.6</ele>
        <time>2026-05-12T10:08:07.000Z</time>
      </trkpt>
      <trkpt lat="49.92369" lon="4.51992">
        <ele>428.3</ele>
        <time>2026-05-12T10:08:17.000Z</time>
      </trkpt>
      <trkpt lat="49.92363" lon="4.52008">
        <ele>429.3</ele>
        <time>2026-05-12T10:08:27.000Z</time>
      </trkpt>
      <trkpt lat="49.92361" lon="4.52023">
        <ele>429.2</ele>
        <time>2026-05-12T10:08:37.000Z</time>
      </trkpt>
      <trkpt lat="49.92357" lon="4.5203">
        <ele>427.2</ele>
        <time>2026-05-12T10:08:47.000Z</time>
      </trkpt>
      <trkpt lat="49.92359" lon="4.52049">
        <ele>427.9</ele>
        <time>2026-05-12T10:08:57.000Z</time>
      </trkpt>
      <trkpt lat="49.92363" lon="4.52064">
        <ele>429.8</ele>
        <time>2026-05-12T10:09:07.000Z</time>
      </trkpt>
      <trkpt lat="49.9237" lon="4.52076">
        <ele>431.7</ele>
        <time>2026-05-12T10:09:17.000Z</time>
      </trkpt>
      <trkpt lat="49.92375" lon="4.52083">
        <ele>428.2</ele>
        <time>2026-05-12T10:09:27.000Z</time>
      </trkpt>
      <trkpt lat="49.9237" lon="4.52085">
        <ele>429.6</ele>
        <time>2026-05-12T10:09:37.000Z</time>
      </trkpt>
      <trkpt lat="49.92371" lon="4.52084">
        <ele>431.1</ele>
        <time>2026-05-12T10:09:47.000Z</time>
      </trkpt>
    </trkseg>
  </trk>
</gpx>